Big Bear Station Historical Data
Daily Summary for June 22, 2019 Units:  English    Metric   Both
Next Day »
Daily Weekly Monthly Yearly Custom
  High: Low: Average:
Temperature: 76.8 °F 43.2 °F 58.8 °F
Dew Point: 39.1 °F 27.4 °F 33.8 °F
Humidity: 83% 21% 43%
Wind Speed: 6.8mph 0mph 0.4mph
Wind Gust: -999mph - -
Wind- - NW
Pressure: 23.59 in 23.43 in -
Precipitation: 0 in    
Historical Graphs
 
 
Tabular Data for June 22, 2019
Time Temperature Dew Point Pressure Wind Wind Speed Wind Gust Humidity Rainfall Rate (Hourly)
00:08 47.3 °F 30.1 °F 23.43 in Calm   -999 mph 51% 0.00 in
00:23 46.8 °F 30.6 °F 23.43 in Calm   -999 mph 53% 0.00 in
00:38 46.2 °F 30.9 °F 23.43 in Calm   -999 mph 55% 0.00 in
00:54 46.6 °F 32.2 °F 23.43 in Calm   -999 mph 57% 0.00 in
01:09 46.6 °F 33.9 °F 23.44 in Calm   -999 mph 61% 0.00 in
01:24 46 °F 33.3 °F 23.44 in Calm   -999 mph 61% 0.00 in
01:39 45.5 °F 33.2 °F 23.43 in Calm   -999 mph 62% 0.00 in
01:54 45.1 °F 33.3 °F 23.44 in Calm   -999 mph 63% 0.00 in
02:10 45 °F 34.3 °F 23.44 in Calm   -999 mph 66% 0.00 in
02:25 45 °F 34.7 °F 23.44 in Calm   -999 mph 67% 0.00 in
02:40 46.4 °F 34.1 °F 23.45 in Calm   -999 mph 62% 0.00 in
02:55 46 °F 34.1 °F 23.45 in Calm   -999 mph 63% 0.00 in
03:10 45.9 °F 35.9 °F 23.45 in Calm   -999 mph 68% 0.00 in
03:26 45 °F 35.8 °F 23.45 in Calm   -999 mph 70% 0.00 in
03:41 44.6 °F 36.8 °F 23.45 in Calm   -999 mph 74% 0.00 in
03:56 44.2 °F 36.4 °F 23.45 in Calm   -999 mph 74% 0.00 in
04:11 44.1 °F 37 °F 23.46 in Calm   -999 mph 76% 0.00 in
04:26 43.9 °F 36.8 °F 23.46 in Calm   -999 mph 76% 0.00 in
04:42 43.7 °F 38.3 °F 23.46 in Calm   -999 mph 81% 0.00 in
04:57 43.9 °F 39.1 °F 23.47 in Calm   -999 mph 83% 0.00 in
05:12 43.2 °F 38.4 °F 23.47 in Calm   -999 mph 83% 0.00 in
05:27 43.5 °F 38.7 °F 23.47 in Calm   -999 mph 83% 0.00 in
05:43 43.3 °F 38.2 °F 23.47 in Calm   -999 mph 82% 0.00 in
05:58 43.2 °F 38.1 °F 23.48 in Calm   -999 mph 82% 0.00 in
06:13 43.3 °F 37.9 °F 23.48 in Calm   -999 mph 81% 0.00 in
06:28 44.2 °F 36.4 °F 23.48 in Calm   -999 mph 74% 0.00 in
06:43 45.7 °F 35.4 °F 23.48 in Calm   -999 mph 67% 0.00 in
06:59 46.2 °F 33.5 °F 23.49 in Calm   -999 mph 61% 0.00 in
07:14 48.4 °F 32 °F 23.49 in Calm   -999 mph 53% 0.00 in
07:29 50.7 °F 33.2 °F 23.49 in Calm   -999 mph 51% 0.00 in
07:44 52.3 °F 33.7 °F 23.50 in Calm   -999 mph 49% 0.00 in
07:59 54 °F 33.1 °F 23.50 in Calm   -999 mph 45% 0.00 in
08:15 55.6 °F 33.4 °F 23.50 in Calm   -999 mph 43% 0.00 in
08:30 57 °F 33.5 °F 23.50 in West 2.7 mph -999 mph 41% 0.00 in
08:45 57.7 °F 33.5 °F 23.51 in Calm   -999 mph 40% 0.00 in
09:00 58.6 °F 31.7 °F 23.51 in Calm   -999 mph 36% 0.00 in
09:15 59.4 °F 32.4 °F 23.51 in Calm   -999 mph 36% 0.00 in
09:31 60.3 °F 33.2 °F 23.51 in Calm   -999 mph 36% 0.00 in
09:46 61.3 °F 32.7 °F 23.51 in Calm   -999 mph 34% 0.00 in
10:01 62.4 °F 33.7 °F 23.51 in Calm   -999 mph 34% 0.00 in
10:16 62.8 °F 33.3 °F 23.52 in NW 1.1 mph -999 mph 33% 0.00 in
10:32 63.5 °F 33.9 °F 23.52 in Calm   -999 mph 33% 0.00 in
10:47 64 °F 35.1 °F 23.52 in Calm   -999 mph 34% 0.00 in
11:02 64.6 °F 33.3 °F 23.53 in Calm   -999 mph 31% 0.00 in
11:17 65.5 °F 33.2 °F 23.53 in Calm   -999 mph 30% 0.00 in
11:32 66.6 °F 33.3 °F 23.53 in Calm   -999 mph 29% 0.00 in
11:48 68.4 °F 33.1 °F 23.53 in Calm   -999 mph 27% 0.00 in
12:03 69.1 °F 32.8 °F 23.53 in Calm   -999 mph 26% 0.00 in
12:18 71.1 °F 33.5 °F 23.53 in Calm   -999 mph 25% 0.00 in
12:33 71.2 °F 34.6 °F 23.53 in Calm   -999 mph 26% 0.00 in
12:48 72.3 °F 34.5 °F 23.53 in NNW 6.8 mph -999 mph 25% 0.00 in
13:04 73.2 °F 35.3 °F 23.53 in NNW 3.7 mph -999 mph 25% 0.00 in
13:19 73.8 °F 35.8 °F 23.53 in Calm   -999 mph 25% 0.00 in
13:34 74.1 °F 37 °F 23.53 in Calm   -999 mph 26% 0.00 in
13:49 74.8 °F 37.6 °F 23.53 in NNW 1.7 mph -999 mph 26% 0.00 in
14:04 74.5 °F 36.4 °F 23.53 in WNW 4.2 mph -999 mph 25% 0.00 in
14:20 73.4 °F 34.4 °F 23.53 in Calm   -999 mph 24% 0.00 in
14:35 74.5 °F 36.4 °F 23.53 in West 1.1 mph -999 mph 25% 0.00 in
14:50 75.7 °F 36.4 °F 23.53 in NW 5.8 mph -999 mph 24% 0.00 in
15:05 75.6 °F 35.2 °F 23.53 in Calm   -999 mph 23% 0.00 in
15:20 73.9 °F 33.8 °F 23.53 in Calm   -999 mph 23% 0.00 in
15:36 76.3 °F 33.5 °F 23.53 in Calm   -999 mph 21% 0.00 in
15:51 74.7 °F 33.3 °F 23.53 in Calm   -999 mph 22% 0.00 in
16:06 74.3 °F 33 °F 23.53 in NW 2.2 mph -999 mph 22% 0.00 in
16:21 74.5 °F 35.3 °F 23.53 in Calm   -999 mph 24% 0.00 in
16:36 74.5 °F 37.4 °F 23.53 in Calm   -999 mph 26% 0.00 in
16:52 75 °F 33.6 °F 23.53 in Calm   -999 mph 22% 0.00 in
17:07 75.2 °F 37 °F 23.53 in Calm   -999 mph 25% 0.00 in
17:22 76.8 °F 36.2 °F 23.53 in West 5.8 mph -999 mph 23% 0.00 in
17:37 75.7 °F 34.2 °F 23.53 in Calm   -999 mph 22% 0.00 in
17:53 75.4 °F 36.1 °F 23.53 in Calm   -999 mph 24% 0.00 in
18:08 75.6 °F 36.3 °F 23.53 in Calm   -999 mph 24% 0.00 in
18:23 74.5 °F 34.3 °F 23.53 in Calm   -999 mph 23% 0.00 in
18:38 73.6 °F 36.6 °F 23.53 in Calm   -999 mph 26% 0.00 in
18:53 72.9 °F 32.9 °F 23.54 in NNW 1.1 mph -999 mph 23% 0.00 in
19:09 70.7 °F 32.1 °F 23.54 in Calm   -999 mph 24% 0.00 in
19:24 66.9 °F 33.6 °F 23.54 in Calm   -999 mph 29% 0.00 in
19:39 64.4 °F 31.4 °F 23.54 in Calm   -999 mph 29% 0.00 in
19:54 63.3 °F 31.3 °F 23.55 in Calm   -999 mph 30% 0.00 in
20:09 62.2 °F 31.2 °F 23.55 in Calm   -999 mph 31% 0.00 in
20:25 61.2 °F 31.9 °F 23.55 in Calm   -999 mph 33% 0.00 in
20:40 58.5 °F 30.2 °F 23.56 in Calm   -999 mph 34% 0.00 in
20:55 57 °F 29.6 °F 23.56 in Calm   -999 mph 35% 0.00 in
21:10 56.3 °F 29 °F 23.57 in Calm   -999 mph 35% 0.00 in
21:26 55.4 °F 28.9 °F 23.57 in Calm   -999 mph 36% 0.00 in
21:41 54.5 °F 29.4 °F 23.58 in Calm   -999 mph 38% 0.00 in
21:56 53.4 °F 29.7 °F 23.58 in Calm   -999 mph 40% 0.00 in
22:12 52.3 °F 28.1 °F 23.58 in Calm   -999 mph 39% 0.00 in
22:27 51.6 °F 27.4 °F 23.59 in Calm   -999 mph 39% 0.00 in
22:42 50.7 °F 30.1 °F 23.58 in Calm   -999 mph 45% 0.00 in
22:57 50 °F 28.9 °F 23.58 in Calm   -999 mph 44% 0.00 in
23:13 48.6 °F 29.3 °F 23.58 in Calm   -999 mph 47% 0.00 in
23:28 48.2 °F 29.9 °F 23.59 in Calm   -999 mph 49% 0.00 in
23:43 47.8 °F 32.4 °F 23.59 in Calm   -999 mph 55% 0.00 in
23:59 47.3 °F 31.9 °F 23.58 in Calm   -999 mph 55% 0.00 in
Big Bear CA Weather